Estación municipal de Cànoves i Samalús (Vallès Oriental, P.N.del Montseny)

Consulta los datos en tiempo real de la estación municipal de Cànoves i Samalús





Hora UTC 09:25
Temperatura 27.3 ºC
Humedad 60.5 %
Presión 1019.6 hPa
Pluja 0.0 mm
Velocidad viento 6.3 km/h
Dirección viento SSE
Radiación solar 557.9 W/m²

Webcam

Datos diarios 2026-08-31



Hora UTC (invierno +1h; verano +2h)
Temperatura (ºC) Humedad (%) Presión (hPa) Velocidad viento (km/h) Precipitación (mm) Radiación solar (W/m²)
Hora UTC Aire Humedad Presión Vel. Dir. Vel. Max Dir. Intent. máx 5 min. Rad. Sol.
00:05 18.7 62.1 1016.9 1.9 NNW 1.9 NNW 0.0 0.1
00:10 18.7 61.7 1016.8 2.1 NW 3.9 NNW 0.0 0.1
00:15 18.8 62.0 1016.9 1.0 N 3.5 NNW 0.0 0.1
00:20 18.6 62.6 1016.8 0.0 NNE 0.0 NNW 0.0 0.1
00:25 18.3 63.6 1016.8 0.0 NNE 0.0 NW 0.0 0.1
00:30 18.1 64.5 1016.8 0.8 SW 2.1 SSW 0.0 0.1
00:35 18.1 66.0 1016.8 2.4 WNW 3.9 NW 0.0 0.1
00:40 18.3 65.7 1016.8 1.3 NW 3.2 NW 0.0 0.1
00:45 18.3 65.6 1016.8 2.2 WNW 4.2 WNW 0.0 0.1
00:50 18.4 65.7 1016.7 0.8 WNW 3.2 WNW 0.0 0.1
00:55 18.5 65.8 1016.7 0.3 WNW 2.1 WNW 0.0 0.1
01:00 18.4 66.0 1016.8 5.1 S 8.8 SSE 0.0 0.1
01:05 18.4 66.1 1016.9 2.0 S 4.2 SSW 0.0 0.1
01:10 18.3 66.7 1017.1 1.3 WSW 3.5 SW 0.0 0.1
01:15 18.5 66.5 1017.1 2.2 NW 4.2 N 0.0 0.1
01:20 18.7 65.8 1017.0 2.6 NNW 3.9 NNW 0.0 0.1
01:25 18.7 66.1 1017.0 3.2 NNW 5.3 NNW 0.0 0.1
01:30 18.6 66.4 1017.0 3.7 NNW 5.3 NNW 0.0 0.1
01:35 18.5 66.8 1017.0 4.0 NNW 6.4 NNW 0.0 0.1
01:40 18.4 66.9 1017.1 3.2 NW 5.6 NNW 0.0 0.1
01:45 18.3 67.4 1017.1 1.4 NW 3.5 NNW 0.0 0.1
01:50 18.0 67.8 1017.1 0.0 NNE 0.0 ENE 0.0 0.1
01:55 17.7 69.3 1017.1 0.0 NNE 0.0 ENE 0.0 0.1
02:00 17.6 69.9 1017.1 2.8 NNW 4.6 NNW 0.0 0.1
02:05 17.7 70.0 1017.1 2.6 NNW 4.9 NNW 0.0 0.1
02:10 17.7 70.3 1017.1 3.9 NNW 4.9 NNW 0.0 0.1
02:15 17.6 70.4 1017.1 3.3 NNW 4.2 NW 0.0 0.1
02:20 17.6 70.4 1017.1 3.0 NNW 3.5 NNW 0.0 0.1
02:25 17.7 70.9 1017.2 4.3 NNW 6.4 NNW 0.0 0.1
02:30 17.6 70.7 1017.2 4.5 NNW 6.7 NNW 0.0 0.1
02:35 17.5 71.1 1017.2 3.4 NNW 4.9 N 0.0 0.1
02:40 17.6 70.9 1017.3 3.9 N 6.0 NNW 0.0 0.1
02:45 17.8 70.2 1017.3 4.0 N 5.6 NNW 0.0 0.1
02:50 17.7 70.0 1017.3 4.6 NNW 6.0 NNW 0.0 0.1
02:55 17.7 70.4 1017.3 5.2 NNW 7.1 NNW 0.0 0.1
03:00 17.8 69.8 1017.3 3.6 NNW 4.9 NNW 0.0 0.1
03:05 17.8 70.1 1017.3 4.3 NNW 6.0 NNW 0.0 0.1
03:10 17.9 69.2 1017.3 4.3 NNW 7.1 NNW 0.0 0.1
03:15 17.8 69.2 1017.3 4.8 NNW 7.1 NW 0.0 0.1
03:20 17.7 69.5 1017.2 4.6 NNW 7.1 NNW 0.0 0.1
03:25 17.7 69.6 1017.2 4.3 NNW 7.4 N 0.0 0.1
03:30 17.7 69.6 1017.2 3.5 NNW 4.9 NNW 0.0 0.1
03:35 17.8 69.5 1017.2 3.6 NNW 4.9 NNW 0.0 0.1
03:40 17.8 69.5 1017.2 3.4 NNW 5.3 NNW 0.0 0.1
03:45 17.8 69.5 1017.2 3.4 NNW 4.6 NNW 0.0 0.1
03:50 17.9 69.5 1017.2 4.1 N 8.1 NNW 0.0 0.1
03:55 18.2 68.3 1017.2 3.7 NNW 6.4 NNW 0.0 0.1
04:00 18.2 68.1 1017.2 3.8 NNW 6.4 NNW 0.0 0.1
04:05 18.1 68.6 1017.2 5.1 NNW 9.5 NNW 0.0 0.1
04:10 18.0 69.0 1017.2 3.6 NNW 6.0 NNW 0.0 0.1
04:15 17.9 68.9 1017.2 3.6 NW 4.9 NNW 0.0 0.1
04:20 17.9 69.1 1017.2 4.3 NW 6.7 NNW 0.0 0.1
04:25 18.0 69.1 1017.3 4.2 NW 5.6 NW 0.0 0.1
04:30 18.1 69.2 1017.2 3.8 NNW 4.9 NNW 0.0 0.1
04:35 18.1 69.6 1017.2 3.6 N 5.3 N 0.0 0.1
04:40 18.2 69.4 1017.3 4.2 NNW 8.1 NNW 0.0 0.1
04:45 18.1 69.5 1017.3 4.4 NNW 6.4 N 0.0 0.1
04:50 18.0 69.5 1017.3 3.9 NW 5.3 NW 0.0 0.2
04:55 18.0 69.5 1017.3 3.9 NNW 5.3 NW 0.0 0.4
05:00 18.0 69.9 1017.3 6.2 NNW 9.2 NNW 0.0 0.8
05:05 18.0 70.3 1017.4 2.6 NNW 5.6 NNW 0.0 1.6
05:10 18.0 70.7 1017.4 1.9 N 4.6 NNE 0.0 2.7
05:15 17.9 70.8 1017.5 0.1 N 1.4 NNE 0.0 4.4
05:20 17.7 71.0 1017.5 0.0 NNE 0.0 NNW 0.0 6.4
05:25 17.5 72.2 1017.6 0.8 NW 2.5 NW 0.0 8.7
05:30 17.4 72.9 1017.6 2.2 NW 3.2 NNW 0.0 10.8
05:35 17.4 73.5 1017.7 2.7 NW 4.6 NNW 0.0 13.3
05:40 17.5 73.9 1017.7 2.2 NW 3.9 NW 0.0 15.7
05:45 17.5 74.0 1017.7 2.6 NW 3.9 NW 0.0 18.3
05:50 17.7 74.4 1017.7 3.0 NNW 4.9 NNE 0.0 23.1
05:55 17.8 74.3 1017.8 3.8 N 6.7 NNW 0.0 42.0
06:00 18.2 73.6 1017.9 5.5 N 8.5 N 0.0 27.8
06:05 18.8 71.6 1017.9 4.3 N 7.4 N 0.0 26.4
06:10 19.1 70.6 1018.0 4.4 NNW 6.0 NNW 0.0 27.5
06:15 19.4 69.8 1018.0 3.3 N 4.9 N 0.0 28.7
06:20 19.5 69.9 1018.1 3.8 N 6.7 N 0.0 29.6
06:25 19.8 69.1 1018.2 4.0 NNW 6.7 NNW 0.0 31.6
06:30 20.3 67.6 1018.2 3.9 N 5.6 NNW 0.0 31.7
06:35 20.8 65.8 1018.2 3.8 N 6.4 NNE 0.0 32.3
06:40 21.2 65.0 1018.3 2.8 N 5.3 N 0.0 32.9
06:45 21.3 65.3 1018.4 1.2 N 3.5 NNE 0.0 33.8
06:50 21.4 65.7 1018.5 0.7 NE 2.5 NE 0.0 36.9
06:55 21.5 65.2 1018.5 0.0 NNE 0.0 NE 0.0 35.5
07:00 21.7 65.6 1018.6 0.4 ESE 2.5 ESE 0.0 36.3
07:05 21.9 63.6 1018.6 2.5 ESE 3.9 E 0.0 37.3
07:10 22.5 61.2 1018.6 2.4 ESE 4.2 E 0.0 38.2
07:15 23.2 59.7 1018.6 3.3 SSE 6.4 SSE 0.0 65.2
07:20 23.7 58.6 1018.7 3.9 SSE 6.4 SE 0.0 72.5
07:25 23.9 58.0 1018.7 3.2 SSE 5.6 SSW 0.0 134.7
07:30 24.1 56.7 1018.7 3.7 SE 5.6 SE 0.0 44.1
07:35 24.4 54.7 1018.8 4.6 ESE 6.7 ESE 0.0 42.1
07:40 24.5 53.3 1018.8 4.9 SE 7.4 SE 0.0 48.2
07:45 24.6 53.1 1018.8 3.7 ESE 6.7 ESE 0.0 93.9
07:50 24.7 53.3 1018.9 4.6 SSE 8.1 SE 0.0 181.8
07:55 25.0 53.3 1018.9 4.8 ESE 9.2 ESE 0.0 363.6
08:00 25.0 52.9 1019.0 6.7 ESE 9.9 ESE 0.0 432.9
08:05 25.0 54.1 1019.0 4.7 ESE 8.8 SE 0.0 447.6
08:10 25.2 54.3 1019.1 4.5 SSE 9.9 S 0.0 461.7
08:15 25.5 53.7 1019.1 5.5 SE 9.5 SE 0.0 474.6
08:20 26.1 52.4 1019.2 4.2 SE 8.5 SE 0.0 487.2
08:25 26.1 53.3 1019.3 6.4 SSW 11.3 SW 0.0 501.0
08:30 26.1 55.0 1019.3 5.9 S 10.6 SSE 0.0 512.8
08:35 26.2 56.8 1019.3 6.2 S 10.9 S 0.0 508.4
08:40 26.2 62.9 1019.4 8.6 SSW 15.9 SSW 0.0 506.2
08:45 26.2 64.1 1019.5 5.8 SSW 12.0 SSE 0.0 547.6
08:50 26.3 63.3 1019.5 6.7 SE 15.2 S 0.0 552.6
08:55 26.5 63.9 1019.5 6.2 SSW 12.7 SW 0.0 566.6
09:00 26.4 63.6 1019.5 3.2 SSE 11.6 WSW 0.0 583.1
09:05 26.5 62.3 1019.6 4.4 S 12.4 SSW 0.0 497.6
09:10 26.6 61.3 1019.6 5.1 WSW 10.6 W 0.0 533.2
09:15 26.7 61.0 1019.6 3.4 SW 8.5 SSW 0.0 642.1
09:20 27.1 60.7 1019.6 7.2 WSW 15.5 WSW 0.0 653.7
09:25 27.3 60.5 1019.6 6.3 SSE 10.2 SE 0.0 557.9
Máxima 27.3 74.4 1019.6 8.6 SSW 15.9 SSW 0.0 653.7
Mínima 17.4 52.4 1016.7
Total 0.0